Time,TemperatureF,DewpointF,PressureIn,WindDirection,WindDirectionDegrees,WindSpeedMPH,WindSpeedGustMPH,Humidity,HourlyPrecipIn,Conditions,Clouds,dailyrainin,SoftwareType,DateUTC
2013-06-05 00:01:00,58.9,55.0,30.13,West,280,0.0,1.0,88,0.00,,,0.00,weatherlink.com 1.10,2013-06-05 04:01:00,
2013-06-05 00:17:00,58.9,55.0,30.13,West,280,0.0,1.0,88,0.00,,,0.00,weatherlink.com 1.10,2013-06-05 04:17:00,
2013-06-05 00:32:00,58.9,56.0,30.13,West,280,0.0,2.0,89,0.00,,,0.00,weatherlink.com 1.10,2013-06-05 04:32:00,
2013-06-05 00:47:00,58.7,56.0,30.13,West,280,1.0,1.0,91,0.00,,,0.00,weatherlink.com 1.10,2013-06-05 04:47:00,
2013-06-05 01:02:00,58.0,55.0,30.13,West,281,0.0,1.0,91,0.00,,,0.00,weatherlink.com 1.10,2013-06-05 05:02:00,
2013-06-05 01:17:00,57.4,55.0,30.13,West,281,0.0,1.0,90,0.00,,,0.00,weatherlink.com 1.10,2013-06-05 05:17:00,
2013-06-05 01:32:00,57.2,54.0,30.13,West,281,1.0,2.0,89,0.00,,,0.00,weatherlink.com 1.10,2013-06-05 05:32:00,
2013-06-05 01:47:00,57.1,54.0,30.13,West,281,0.0,-999.0,90,-99.99,,,0.00,weatherlink.com 1.10,2013-06-05 05:47:00,
2013-06-05 02:02:00,57.1,54.0,30.13,West,278,1.0,2.0,90,0.00,,,0.00,weatherlink.com 1.10,2013-06-05 06:02:00,
2013-06-05 02:17:00,57.3,54.0,30.13,West,280,0.0,2.0,89,0.00,,,0.00,weatherlink.com 1.10,2013-06-05 06:17:00,
2013-06-05 02:32:00,56.7,54.0,30.13,West,278,1.0,1.0,89,0.00,,,0.00,weatherlink.com 1.10,2013-06-05 06:32:00,
2013-06-05 02:47:00,56.7,53.0,30.12,West,278,1.0,1.0,87,0.00,,,0.00,weatherlink.com 1.10,2013-06-05 06:47:00,
2013-06-05 03:02:00,57.0,54.0,30.12,West,280,0.0,2.0,89,0.00,,,0.00,weatherlink.com 1.10,2013-06-05 07:02:00,
2013-06-05 03:17:00,56.2,54.0,30.13,West,278,0.0,2.0,91,0.00,,,0.00,weatherlink.com 1.10,2013-06-05 07:17:00,
2013-06-05 03:32:00,55.7,53.0,30.13,West,278,0.0,1.0,91,0.00,,,0.00,weatherlink.com 1.10,2013-06-05 07:32:00,
2013-06-05 03:47:00,55.8,54.0,30.13,West,278,1.0,1.0,92,0.00,,,0.00,weatherlink.com 1.10,2013-06-05 07:47:00,
2013-06-05 04:02:00,55.7,54.0,30.13,West,278,0.0,1.0,92,0.00,,,0.00,weatherlink.com 1.10,2013-06-05 08:02:00,
2013-06-05 04:17:00,55.2,53.0,30.14,West,278,0.0,2.0,91,0.00,,,0.00,weatherlink.com 1.10,2013-06-05 08:17:00,
2013-06-05 04:32:00,55.2,53.0,30.14,West,278,1.0,2.0,92,0.00,,,0.00,weatherlink.com 1.10,2013-06-05 08:32:00,
2013-06-05 04:47:00,55.1,53.0,30.15,West,280,1.0,2.0,92,0.00,,,0.00,weatherlink.com 1.10,2013-06-05 08:47:00,
2013-06-05 05:02:00,54.8,53.0,30.15,West,278,0.0,1.0,92,0.00,,,0.00,weatherlink.com 1.10,2013-06-05 09:02:00,
2013-06-05 05:17:00,54.9,53.0,30.16,West,271,1.0,2.0,92,0.00,,,0.00,weatherlink.com 1.10,2013-06-05 09:17:00,
2013-06-05 05:32:00,54.9,53.0,30.16,West,271,1.0,1.0,93,0.00,,,0.00,weatherlink.com 1.10,2013-06-05 09:32:00,
2013-06-05 05:47:00,54.9,53.0,30.16,West,271,1.0,2.0,93,0.00,,,0.00,weatherlink.com 1.10,2013-06-05 09:47:00,
2013-06-05 06:02:00,55.1,53.0,30.17,West,271,0.0,1.0,93,0.00,,,0.00,weatherlink.com 1.10,2013-06-05 10:02:00,
2013-06-05 06:17:00,57.6,54.0,30.18,NE,44,6.0,9.0,88,0.00,,,0.00,weatherlink.com 1.10,2013-06-05 10:17:00,
2013-06-05 06:32:00,59.7,55.0,30.18,NE,34,3.0,7.0,83,0.00,,,0.00,weatherlink.com 1.10,2013-06-05 10:32:00,
2013-06-05 06:47:00,60.7,55.0,30.18,WNW,297,2.0,3.0,82,0.00,,,0.00,weatherlink.com 1.10,2013-06-05 10:47:00,
2013-06-05 07:02:00,60.3,55.0,30.19,NW,306,1.0,3.0,82,0.00,,,0.00,weatherlink.com 1.10,2013-06-05 11:02:00,
2013-06-05 07:17:00,61.2,55.0,30.19,WNW,288,0.0,3.0,81,0.00,,,0.00,weatherlink.com 1.10,2013-06-05 11:17:00,
2013-06-05 07:32:00,62.4,56.0,30.18,NW,316,0.0,3.0,80,0.00,,,0.00,weatherlink.com 1.10,2013-06-05 11:32:00,
2013-06-05 07:47:00,64.0,57.0,30.19,North,352,1.0,2.0,78,0.00,,,0.00,weatherlink.com 1.10,2013-06-05 11:47:00,
2013-06-05 08:03:00,65.8,59.0,30.19,North,11,0.0,1.0,79,0.00,,,0.00,weatherlink.com 1.10,2013-06-05 12:03:00,
2013-06-05 08:18:00,66.7,60.0,30.19,ENE,58,2.0,3.0,80,0.00,,,0.00,weatherlink.com 1.10,2013-06-05 12:18:00,
2013-06-05 08:33:00,67.5,62.0,30.19,NE,56,3.0,4.0,81,0.00,,,0.00,weatherlink.com 1.10,2013-06-05 12:33:00,
2013-06-05 08:48:00,68.1,61.0,30.18,East,81,5.0,8.0,78,0.00,,,0.00,weatherlink.com 1.10,2013-06-05 12:48:00,
2013-06-05 09:03:00,68.2,61.0,30.19,East,83,7.0,8.0,77,0.00,,,0.00,weatherlink.com 1.10,2013-06-05 13:03:00,
2013-06-05 09:18:00,68.5,60.0,30.19,ENE,74,7.0,8.0,74,0.00,,,0.00,weatherlink.com 1.10,2013-06-05 13:18:00,
2013-06-05 09:33:00,68.5,58.0,30.20,ENE,77,4.0,7.0,70,0.00,,,0.00,weatherlink.com 1.10,2013-06-05 13:33:00,
2013-06-05 09:48:00,68.9,60.0,30.19,ENE,72,6.0,7.0,72,0.00,,,0.00,weatherlink.com 1.10,2013-06-05 13:48:00,
2013-06-05 10:03:00,69.0,58.0,30.19,East,98,4.0,5.0,69,0.00,,,0.00,weatherlink.com 1.10,2013-06-05 14:03:00,
2013-06-05 10:18:00,69.0,58.0,30.19,East,96,4.0,7.0,68,0.00,,,0.00,weatherlink.com 1.10,2013-06-05 14:18:00,
2013-06-05 10:33:00,69.2,59.0,30.18,East,82,8.0,8.0,69,0.00,,,0.00,weatherlink.com 1.10,2013-06-05 14:33:00,
2013-06-05 10:48:00,69.3,58.0,30.18,ENE,70,7.0,8.0,68,0.00,,,0.00,weatherlink.com 1.10,2013-06-05 14:48:00,
2013-06-05 11:03:00,69.5,58.0,30.18,ESE,105,6.0,8.0,66,0.00,,,0.00,weatherlink.com 1.10,2013-06-05 15:03:00,
2013-06-05 11:18:00,69.6,58.0,30.18,East,82,7.0,8.0,66,0.00,,,0.00,weatherlink.com 1.10,2013-06-05 15:18:00,
2013-06-05 11:33:00,69.7,57.0,30.17,East,88,8.0,8.0,65,0.00,,,0.00,weatherlink.com 1.10,2013-06-05 15:33:00,
2013-06-05 11:48:00,70.0,58.0,30.17,East,81,8.0,9.0,67,0.00,,,0.00,weatherlink.com 1.10,2013-06-05 15:48:00,
2013-06-05 12:03:00,70.2,57.0,30.16,East,94,9.0,11.0,64,0.00,,,0.00,weatherlink.com 1.10,2013-06-05 16:03:00,
2013-06-05 12:18:00,70.6,58.0,30.17,ENE,77,7.0,10.0,65,0.00,,,0.00,weatherlink.com 1.10,2013-06-05 16:18:00,
2013-06-05 12:33:00,71.2,56.0,30.16,SSW,198,5.0,9.0,58,0.00,,,0.00,weatherlink.com 1.10,2013-06-05 16:33:00,
2013-06-05 12:48:00,72.5,56.0,30.16,ESE,108,5.0,5.0,57,0.00,,,0.00,weatherlink.com 1.10,2013-06-05 16:48:00,
2013-06-05 13:03:00,73.3,57.0,30.16,SSW,201,5.0,8.0,56,0.00,,,0.00,weatherlink.com 1.10,2013-06-05 17:03:00,
2013-06-05 13:18:00,73.6,58.0,30.15,SSE,150,7.0,10.0,58,0.00,,,0.00,weatherlink.com 1.10,2013-06-05 17:18:00,
2013-06-05 13:33:00,73.7,55.0,30.14,SSE,162,7.0,11.0,53,0.00,,,0.00,weatherlink.com 1.10,2013-06-05 17:33:00,
2013-06-05 13:48:00,74.4,50.0,30.14,SSW,203,4.0,10.0,42,0.00,,,0.00,weatherlink.com 1.10,2013-06-05 17:48:00,
2013-06-05 14:03:00,74.8,51.0,30.14,SSW,203,7.0,9.0,44,0.00,,,0.00,weatherlink.com 1.10,2013-06-05 18:03:00,
2013-06-05 14:18:00,75.1,52.0,30.14,South,183,5.0,9.0,44,0.00,,,0.00,weatherlink.com 1.10,2013-06-05 18:18:00,
2013-06-05 14:34:00,74.9,54.0,30.13,SW,228,1.0,8.0,49,0.00,,,0.00,weatherlink.com 1.10,2013-06-05 18:34:00,
2013-06-05 14:49:00,75.4,54.0,30.13,SSW,204,3.0,7.0,48,0.00,,,0.00,weatherlink.com 1.10,2013-06-05 18:49:00,
2013-06-05 15:04:00,75.6,53.0,30.13,SSE,166,5.0,12.0,45,0.00,,,0.00,weatherlink.com 1.10,2013-06-05 19:04:00,
2013-06-05 15:19:00,75.8,55.0,30.12,SSW,201,4.0,11.0,48,0.00,,,0.00,weatherlink.com 1.10,2013-06-05 19:19:00,
2013-06-05 15:34:00,76.1,55.0,30.11,SSW,194,7.0,11.0,48,0.00,,,0.00,weatherlink.com 1.10,2013-06-05 19:34:00,
2013-06-05 15:49:00,76.2,55.0,30.12,SSW,197,7.0,12.0,48,0.00,,,0.00,weatherlink.com 1.10,2013-06-05 19:49:00,
2013-06-05 16:04:00,76.2,55.0,30.12,SSW,200,6.0,10.0,48,0.00,,,0.00,weatherlink.com 1.10,2013-06-05 20:04:00,
2013-06-05 16:19:00,76.3,56.0,30.12,South,169,5.0,12.0,49,0.00,,,0.00,weatherlink.com 1.10,2013-06-05 20:19:00,
2013-06-05 16:34:00,76.3,57.0,30.11,SSW,194,7.0,10.0,51,0.00,,,0.00,weatherlink.com 1.10,2013-06-05 20:34:00,
2013-06-05 16:49:00,76.1,57.0,30.11,SSW,211,7.0,11.0,51,0.00,,,0.00,weatherlink.com 1.10,2013-06-05 20:49:00,
2013-06-05 17:04:00,76.7,58.0,30.12,South,187,6.0,10.0,53,0.00,,,0.00,weatherlink.com 1.10,2013-06-05 21:04:00,
2013-06-05 17:19:00,76.5,59.0,30.12,SSW,200,6.0,11.0,54,0.00,,,0.00,weatherlink.com 1.10,2013-06-05 21:19:00,
2013-06-05 17:34:00,76.2,58.0,30.11,SSE,152,6.0,10.0,54,0.00,,,0.00,weatherlink.com 1.10,2013-06-05 21:34:00,
2013-06-05 17:49:00,76.4,58.0,30.11,South,180,5.0,9.0,53,0.00,,,0.00,weatherlink.com 1.10,2013-06-05 21:49:00,
2013-06-05 18:04:00,76.6,58.0,30.11,SSE,158,7.0,9.0,52,0.00,,,0.00,weatherlink.com 1.10,2013-06-05 22:04:00,
2013-06-05 18:19:00,76.6,58.0,30.11,South,169,7.0,10.0,52,0.00,,,0.00,weatherlink.com 1.10,2013-06-05 22:19:00,
2013-06-05 18:34:00,76.5,58.0,30.10,SSE,158,6.0,10.0,53,0.00,,,0.00,weatherlink.com 1.10,2013-06-05 22:34:00,
2013-06-05 18:49:00,76.1,60.0,30.10,SSW,201,8.0,11.0,57,0.00,,,0.00,weatherlink.com 1.10,2013-06-05 22:49:00,
2013-06-05 19:04:00,75.7,59.0,30.09,SSW,207,7.0,11.0,57,0.00,,,0.00,weatherlink.com 1.10,2013-06-05 23:04:00,
2013-06-05 19:19:00,75.6,60.0,30.09,SSW,206,6.0,10.0,59,0.00,,,0.00,weatherlink.com 1.10,2013-06-05 23:19:00,
2013-06-05 19:34:00,75.0,61.0,30.09,SSW,206,4.0,11.0,62,0.00,,,0.00,weatherlink.com 1.10,2013-06-05 23:34:00,
2013-06-05 19:49:00,74.4,59.0,30.09,SW,221,4.0,13.0,59,0.00,,,0.00,weatherlink.com 1.10,2013-06-05 23:49:00,
2013-06-05 20:04:00,73.7,59.0,30.09,SSW,210,5.0,13.0,60,0.00,,,0.00,weatherlink.com 1.10,2013-06-06 00:04:00,
2013-06-05 20:19:00,72.9,59.0,30.08,SSW,207,8.0,11.0,62,0.00,,,0.00,weatherlink.com 1.10,2013-06-06 00:19:00,
2013-06-05 20:34:00,72.4,59.0,30.08,SSW,204,9.0,12.0,62,0.00,,,0.00,weatherlink.com 1.10,2013-06-06 00:34:00,
2013-06-05 20:49:00,72.3,58.0,30.08,SSW,194,8.0,14.0,62,0.00,,,0.00,weatherlink.com 1.10,2013-06-06 00:49:00,
2013-06-05 21:04:00,72.1,58.0,30.08,SSW,208,10.0,13.0,62,0.00,,,0.00,weatherlink.com 1.10,2013-06-06 01:04:00,
2013-06-05 21:19:00,71.8,58.0,30.09,SSW,195,5.0,10.0,63,0.00,,,0.00,weatherlink.com 1.10,2013-06-06 01:19:00,
2013-06-05 21:34:00,71.6,57.0,30.09,SSW,212,9.0,-999.0,61,-99.99,,,0.00,weatherlink.com 1.10,2013-06-06 01:34:00,
2013-06-05 21:49:00,71.6,57.0,30.10,WSW,237,4.0,12.0,60,0.00,,,0.00,weatherlink.com 1.10,2013-06-06 01:49:00,
2013-06-05 22:04:00,70.9,56.0,30.10,West,260,5.0,11.0,60,0.00,,,0.00,weatherlink.com 1.10,2013-06-06 02:04:00,
2013-06-05 22:19:00,70.3,56.0,30.10,SSW,196,2.0,10.0,61,0.00,,,0.00,weatherlink.com 1.10,2013-06-06 02:19:00,
2013-06-05 22:34:00,69.8,56.0,30.10,WSW,242,2.0,11.0,62,0.00,,,0.00,weatherlink.com 1.10,2013-06-06 02:34:00,
2013-06-05 22:49:00,69.5,57.0,30.11,WSW,239,7.0,8.0,64,0.00,,,0.00,weatherlink.com 1.10,2013-06-06 02:49:00,
2013-06-05 23:04:00,69.1,56.0,30.10,WSW,257,2.0,8.0,64,0.00,,,0.00,weatherlink.com 1.10,2013-06-06 03:04:00,
2013-06-05 23:19:00,68.6,56.0,30.11,SW,224,3.0,6.0,65,0.00,,,0.00,weatherlink.com 1.10,2013-06-06 03:19:00,
2013-06-05 23:34:00,68.3,56.0,30.11,SW,232,3.0,7.0,66,0.00,,,0.00,weatherlink.com 1.10,2013-06-06 03:34:00,
2013-06-05 23:49:00,67.7,56.0,30.11,WSW,255,3.0,6.0,66,0.00,,,0.00,weatherlink.com 1.10,2013-06-06 03:49:00,